| time (UTC) | temp F | wind direction | speed knots | gust knots | rain 1hr in | rain 24hr in | rain mn in | humidity % | barometer mb |
| 20260507213505 | 55 | 354 | 2.6 | 7.8 | 0.00 | 0.00 | 0.00 | 45 | 1010.6 |
| 20260507213003 | 54 | 312 | 4.3 | 11.3 | 0.00 | 0.00 | 0.00 | 45 | 1010.4 |
| 20260507212505 | 54 | 349 | 4.3 | 10.4 | 0.00 | 0.00 | 0.00 | 45 | 1010.4 |
| 20260507212004 | 53 | 319 | 4.3 | 7.0 | 0.00 | 0.00 | 0.00 | 46 | 1010.4 |
| 20260507211505 | 54 | 291 | 4.3 | 12.2 | 0.00 | 0.00 | 0.00 | 46 | 1010.4 |
| 20260507211004 | 54 | 329 | 4.3 | 7.0 | 0.00 | 0.00 | 0.00 | 46 | 1010.4 |
| 20260507210504 | 54 | 298 | 5.2 | 10.4 | 0.00 | 0.00 | 0.00 | 45 | 1010.4 |
| 20260507205004 | 56 | 279 | 3.5 | 8.7 | 0.00 | 0.00 | 0.00 | 45 | 1010.3 |
| 20260507204505 | 56 | 284 | 3.5 | 6.1 | 0.00 | 0.00 | 0.00 | 46 | 1010.4 |
| 20260507204004 | 56 | 350 | 3.5 | 10.4 | 0.00 | 0.00 | 0.00 | 45 | 1010.2 |
| 20260507203504 | 56 | 298 | 2.6 | 8.7 | 0.00 | 0.00 | 0.00 | 46 | 1010.4 |
| 20260507203004 | 55 | 303 | 5.2 | 11.3 | 0.00 | 0.00 | 0.00 | 47 | 1010.4 |
| 20260507202504 | 55 | 299 | 3.5 | 8.7 | 0.00 | 0.00 | 0.00 | 48 | 1010.5 |
| 20260507202004 | 53 | 351 | 4.3 | 10.4 | 0.00 | 0.00 | 0.00 | 50 | 1010.5 |
| 20260507201503 | 54 | 255 | 3.5 | 10.4 | 0.00 | 0.00 | 0.00 | 48 | 1010.6 |
| 20260507201004 | 54 | 333 | 3.5 | 10.4 | 0.00 | 0.00 | 0.00 | 52 | 1010.6 |
| 20260507200505 | 54 | 313 | 2.6 | 7.8 | 0.00 | 0.00 | 0.00 | 49 | 1010.6 |
| 20260507200004 | 55 | 282 | 4.3 | 13.0 | 0.00 | 0.00 | 0.00 | 48 | 1010.6 |
| 20260507195504 | 54 | 322 | 4.3 | 8.7 | 0.00 | 0.00 | 0.00 | 50 | 1010.6 |
| 20260507195003 | 54 | 333 | 6.1 | 13.9 | 0.00 | 0.00 | 0.00 | 51 | 1010.7 |
| 20260507194503 | 55 | 306 | 6.1 | 12.2 | 0.00 | 0.00 | 0.00 | 49 | 1010.6 |
| 20260507193503 | 56 | 337 | 2.6 | 7.0 | 0.00 | 0.00 | 0.00 | 49 | 1010.7 |
| 20260507192504 | 55 | 354 | 4.3 | 10.4 | 0.00 | 0.00 | 0.00 | 52 | 1010.8 |
| 20260507192003 | 55 | 314 | 5.2 | 12.2 | 0.00 | 0.00 | 0.00 | 51 | 1010.9 |
| 20260507191504 | 54 | 347 | 4.3 | 11.3 | 0.00 | 0.00 | 0.00 | 51 | 1010.9 |
| 20260507191004 | 55 | 345 | 2.6 | 10.4 | 0.00 | 0.00 | 0.00 | 52 | 1011.0 |
| 20260507190504 | 54 | 280 | 2.6 | 8.7 | 0.00 | 0.00 | 0.00 | 53 | 1011.0 |
| 20260507190005 | 53 | 315 | 4.3 | 11.3 | 0.00 | 0.00 | 0.00 | 52 | 1010.9 |
| 20260507185504 | 53 | 311 | 2.6 | 6.1 | 0.00 | 0.00 | 0.00 | 53 | 1011.1 |
| 20260507185004 | 53 | 321 | 5.2 | 13.9 | 0.00 | 0.00 | 0.00 | 51 | 1011.1 |
| 20260507184505 | 53 | 339 | 2.6 | 7.8 | 0.00 | 0.00 | 0.00 | 53 | 1011.1 |
| 20260507184004 | 53 | 339 | 4.3 | 7.8 | 0.00 | 0.00 | 0.00 | 52 | 1011.2 |
| 20260507183504 | 53 | 275 | 2.6 | 7.8 | 0.00 | 0.00 | 0.00 | 53 | 1011.1 |
| 20260507183004 | 53 | 264 | 1.7 | 6.1 | 0.00 | 0.00 | 0.00 | 54 | 1011.0 |
| 20260507182504 | 54 | 281 | 2.6 | 7.0 | 0.00 | 0.00 | 0.00 | 52 | 1011.1 |
| 20260507182004 | 54 | 293 | 4.3 | 10.4 | 0.00 | 0.00 | 0.00 | 51 | 1011.0 |
| 20260507181504 | 54 | 305 | 5.2 | 10.4 | 0.00 | 0.00 | 0.00 | 51 | 1011.1 |
| 20260507181005 | 54 | 277 | 4.3 | 10.4 | 0.00 | 0.00 | 0.00 | 51 | 1011.0 |
| 20260507180503 | 54 | 328 | 1.7 | 5.2 | 0.00 | 0.00 | 0.00 | 53 | 1011.1 |
| 20260507180004 | 54 | 254 | 1.7 | 7.0 | 0.00 | 0.00 | 0.00 | 53 | 1011.2 |
| 20260507175504 | 54 | 287 | 3.5 | 7.0 | 0.00 | 0.00 | 0.00 | 53 | 1011.2 |
| 20260507175005 | 53 | 325 | 1.7 | 10.4 | 0.00 | 0.00 | 0.00 | 55 | 1011.2 |
| 20260507174504 | 52 | 240 | 2.6 | 10.4 | 0.00 | 0.00 | 0.00 | 54 | 1011.3 |
| 20260507174004 | 52 | 270 | 3.5 | 13.0 | 0.00 | 0.00 | 0.00 | 55 | 1011.4 |
| 20260507173504 | 51 | 254 | 3.5 | 7.0 | 0.00 | 0.00 | 0.00 | 55 | 1011.4 |
| 20260507173004 | 51 | 299 | 5.2 | 8.7 | 0.00 | 0.00 | 0.00 | 56 | 1011.5 |
| 20260507172504 | 51 | 303 | 5.2 | 11.3 | 0.00 | 0.00 | 0.00 | 54 | 1011.5 |
| 20260507172004 | 52 | 260 | 5.2 | 10.4 | 0.00 | 0.00 | 0.00 | 53 | 1011.5 |
| 20260507171003 | 53 | 312 | 4.3 | 8.7 | 0.00 | 0.00 | 0.00 | 51 | 1011.5 |
| 20260507170503 | 53 | 310 | 4.3 | 10.4 | 0.00 | 0.00 | 0.00 | 50 | 1011.4 |
| 20260507170004 | 53 | 307 | 5.2 | 7.8 | 0.00 | 0.00 | 0.00 | 52 | 1011.5 |
| 20260507165504 | 52 | 295 | 2.6 | 6.1 | 0.00 | 0.00 | 0.00 | 53 | 1011.5 |
| 20260507165003 | 51 | 242 | 4.3 | 10.4 | 0.00 | 0.00 | 0.00 | 54 | 1011.6 |
| 20260507164504 | 52 | 303 | 5.2 | 10.4 | 0.00 | 0.00 | 0.00 | 54 | 1011.7 |
| 20260507164004 | 52 | 157 | 5.2 | 10.4 | 0.00 | 0.00 | 0.00 | 53 | 1011.6 |
| 20260507163504 | 52 | 295 | 2.6 | 7.8 | 0.00 | 0.00 | 0.00 | 55 | 1011.7 |
| 20260507163004 | 51 | 265 | 4.3 | 10.4 | 0.00 | 0.00 | 0.00 | 53 | 1011.8 |
| 20260507162504 | 52 | 304 | 3.5 | 7.8 | 0.00 | 0.00 | 0.00 | 54 | 1011.8 |
| 20260507162003 | 52 | 316 | 2.6 | 7.0 | 0.00 | 0.00 | 0.00 | 53 | 1011.8 |
| 20260507161504 | 53 | 334 | 3.5 | 7.0 | 0.00 | 0.00 | 0.00 | 53 | 1011.8 |
| 20260507161004 | 54 | 326 | 5.2 | 11.3 | 0.00 | 0.00 | 0.00 | 53 | 1011.7 |
| 20260507160502 | 54 | 320 | 4.3 | 11.3 | 0.00 | 0.00 | 0.00 | 55 | 1011.7 |
| 20260507160004 | 52 | 252 | 2.6 | 7.8 | 0.00 | 0.00 | 0.00 | 54 | 1011.8 |
| 20260507155003 | 52 | 301 | 4.3 | 10.4 | 0.00 | 0.00 | 0.00 | 54 | 1012.1 |
| 20260507154503 | 52 | 254 | 2.6 | 8.7 | 0.00 | 0.00 | 0.00 | 57 | 1012.0 |
| 20260507154004 | 51 | 333 | 3.5 | 6.1 | 0.00 | 0.00 | 0.00 | 58 | 1012.0 |
| 20260507153504 | 51 | 314 | 0.9 | 7.8 | 0.00 | 0.00 | 0.00 | 57 | 1012.1 |
| 20260507152502 | 51 | 299 | 4.3 | 11.3 | 0.00 | 0.00 | 0.00 | 54 | 1012.1 |
| 20260507151502 | 51 | 299 | 2.6 | 7.0 | 0.00 | 0.00 | 0.00 | 55 | 1012.1 |
| 20260507151003 | 52 | 277 | 2.6 | 7.0 | 0.00 | 0.00 | 0.00 | 53 | 1012.1 |
| 20260507150502 | 52 | 325 | 5.2 | 10.4 | 0.00 | 0.00 | 0.00 | 53 | 1012.1 |
| 20260507150005 | 51 | 337 | 4.3 | 7.8 | 0.00 | 0.00 | 0.00 | 54 | 1012.2 |
| 20260507145503 | 51 | 304 | 3.5 | 7.0 | 0.00 | 0.00 | 0.00 | 58 | 1012.3 |
| 20260507145003 | 51 | 295 | 3.5 | 7.8 | 0.00 | 0.00 | 0.00 | 57 | 1012.3 |
| 20260507144503 | 51 | 261 | 2.6 | 10.4 | 0.00 | 0.00 | 0.00 | 56 | 1012.3 |
| 20260507144003 | 51 | 297 | 2.6 | 7.8 | 0.00 | 0.00 | 0.00 | 57 | 1012.3 |
| 20260507143503 | 51 | 293 | 3.5 | 8.7 | 0.00 | 0.00 | 0.00 | 62 | 1012.4 |
| 20260507143003 | 50 | 350 | 3.5 | 7.0 | 0.00 | 0.00 | 0.00 | 61 | 1012.3 |
| 20260507142503 | 50 | 335 | 1.7 | 5.2 | 0.00 | 0.00 | 0.00 | 66 | 1012.4 |
| 20260507141503 | 50 | 292 | 1.7 | 4.3 | 0.00 | 0.00 | 0.00 | 67 | 1012.5 |
| 20260507141003 | 50 | 318 | 2.6 | 4.3 | 0.00 | 0.00 | 0.00 | 68 | 1012.5 |
| 20260507140502 | 50 | 351 | 0.9 | 5.2 | 0.00 | 0.00 | 0.00 | 68 | 1012.5 |
| 20260507140002 | 50 | 336 | 2.6 | 4.3 | 0.00 | 0.00 | 0.00 | 67 | 1012.5 |
| 20260507135503 | 50 | 5 | 1.7 | 2.6 | 0.00 | 0.00 | 0.00 | 69 | 1012.6 |
| 20260507135003 | 50 | 12 | 1.7 | 5.2 | 0.00 | 0.00 | 0.00 | 67 | 1012.7 |
| 20260507134503 | 50 | 320 | 1.7 | 6.1 | 0.00 | 0.00 | 0.00 | 67 | 1012.7 |
| 20260507134002 | 49 | 300 | 1.7 | 4.3 | 0.00 | 0.00 | 0.00 | 69 | 1012.7 |
| 20260507133502 | 49 | 155 | 1.7 | 6.1 | 0.00 | 0.00 | 0.00 | 69 | 1012.8 |
| 20260507133003 | 49 | 69 | 0.9 | 2.6 | 0.00 | 0.00 | 0.00 | 72 | 1012.8 |
| 20260507132502 | 48 | 11 | 1.7 | 2.6 | 0.00 | 0.00 | 0.00 | 72 | 1012.8 |
| 20260507132003 | 47 | 262 | 0.9 | 2.6 | 0.00 | 0.00 | 0.00 | 73 | 1012.9 |
| 20260507131503 | 47 | 294 | 0.9 | 5.2 | 0.00 | 0.00 | 0.00 | 73 | 1012.9 |
| 20260507131002 | 47 | 309 | 1.7 | 4.3 | 0.00 | 0.01 | 0.00 | 74 | 1012.8 |
| 20260507130503 | 46 | 290 | 1.7 | 6.1 | 0.00 | 0.01 | 0.00 | 74 | 1012.8 |
| 20260507130003 | 45 | 289 | 2.6 | 6.1 | 0.00 | 0.01 | 0.00 | 73 | 1012.8 |
| 20260507125502 | 44 | 306 | 1.7 | 4.3 | 0.00 | 0.01 | 0.00 | 76 | 1012.7 |
| 20260507125003 | 44 | 178 | 2.6 | 4.3 | 0.00 | 0.01 | 0.00 | 74 | 1012.7 |
| 20260507124503 | 44 | 173 | 2.6 | 5.2 | 0.00 | 0.01 | 0.00 | 74 | 1012.6 |
| 20260507124003 | 44 | 168 | 2.6 | 6.1 | 0.00 | 0.01 | 0.00 | 73 | 1012.7 |
| 20260507123502 | 44 | 220 | 1.7 | 4.3 | 0.00 | 0.01 | 0.00 | 76 | 1012.7 |
| 20260507122503 | 43 | 163 | 1.7 | 2.6 | 0.00 | 0.02 | 0.00 | 78 | 1012.7 |
| 20260507121503 | 42 | 154 | 2.6 | 6.1 | 0.00 | 0.02 | 0.00 | 79 | 1012.8 |
| 20260507121003 | 42 | 146 | 1.7 | 6.1 | 0.00 | 0.02 | 0.00 | 81 | 1012.7 |
| 20260507120502 | 41 | 146 | 0.9 | 2.6 | 0.00 | 0.02 | 0.00 | 83 | 1012.7 |
| 20260507120002 | 40 | 142 | 1.7 | 2.6 | 0.00 | 0.02 | 0.00 | 84 | 1012.7 |
| 20260507115503 | 39 | 153 | 2.6 | 2.6 | 0.00 | 0.02 | 0.00 | 86 | 1012.7 |
| 20260507115002 | 39 | 146 | 2.6 | 6.1 | 0.00 | 0.02 | 0.00 | 87 | 1012.7 |
| 20260507114503 | 38 | 148 | 1.7 | 4.3 | 0.00 | 0.02 | 0.00 | 89 | 1012.7 |
| 20260507114004 | 37 | 163 | 0.9 | 1.7 | 0.00 | 0.02 | 0.00 | 89 | 1012.8 |
| 20260507113004 | 37 | 164 | 1.7 | 2.6 | 0.00 | 0.02 | 0.00 | 91 | 1012.7 |
| 20260507112503 | 37 | 162 | 0.9 | 1.7 | 0.00 | 0.03 | 0.00 | 92 | 1012.6 |
| 20260507112003 | 36 | 162 | 0.0 | 2.6 | 0.00 | 0.03 | 0.00 | 93 | 1012.7 |
| 20260507111506 | 35 | 169 | 0.9 | 2.6 | 0.00 | 0.03 | 0.00 | 94 | 1012.7 |
| 20260507111002 | 35 | 170 | 0.0 | 1.7 | 0.00 | 0.03 | 0.00 | 94 | 1012.7 |
| 20260507104503 | 33 | 217 | 0.0 | 0.0 | 0.00 | 0.06 | 0.00 | 93 | 1012.4 |
| 20260507104003 | 33 | 217 | 0.0 | 0.0 | 0.00 | 0.06 | 0.00 | 94 | 1012.4 |
| 20260507103003 | 33 | 217 | 0.0 | 0.0 | 0.00 | 0.07 | 0.00 | 93 | 1012.4 |
| 20260507102002 | 33 | 217 | 0.0 | 0.0 | 0.00 | 0.07 | 0.00 | 93 | 1012.4 |
| 20260507101503 | 33 | 217 | 0.0 | 0.0 | 0.00 | 0.07 | 0.00 | 93 | 1012.3 |
| 20260507101003 | 33 | 217 | 0.0 | 0.9 | 0.00 | 0.07 | 0.00 | 93 | 1012.3 |
| 20260507100503 | 33 | 210 | 0.0 | 0.0 | 0.00 | 0.07 | 0.00 | 93 | 1012.3 |
| 20260507100003 | 33 | 210 | 0.0 | 0.0 | 0.00 | 0.08 | 0.00 | 92 | 1012.3 |
| 20260507095503 | 33 | 210 | 0.0 | 0.0 | 0.00 | 0.08 | 0.00 | 92 | 1012.3 |
| 20260507095003 | 33 | 210 | 0.0 | 0.0 | 0.00 | 0.09 | 0.00 | 92 | 1012.3 |
| 20260507094503 | 33 | 210 | 0.0 | 0.0 | 0.00 | 0.09 | 0.00 | 92 | 1012.3 |
| 20260507094005 | 33 | 210 | 0.0 | 0.0 | 0.00 | 0.10 | 0.00 | 92 | 1012.3 |
| 20260507093503 | 33 | 210 | 0.0 | 0.0 | 0.00 | 0.11 | 0.00 | 92 | 1012.3 |
| 20260507093003 | 34 | 210 | 0.0 | 0.0 | 0.00 | 0.12 | 0.00 | 92 | 1012.3 |
| 20260507092504 | 34 | 210 | 0.0 | 0.0 | 0.00 | 0.13 | 0.00 | 92 | 1012.3 |
| 20260507091504 | 34 | 210 | 0.0 | 0.0 | 0.00 | 0.14 | 0.00 | 91 | 1012.5 |
| 20260507091003 | 34 | 210 | 0.0 | 0.0 | 0.00 | 0.15 | 0.00 | 91 | 1012.5 |
| 20260507090504 | 34 | 210 | 0.0 | 0.0 | 0.00 | 0.15 | 0.00 | 92 | 1012.5 |
| 20260507090004 | 35 | 210 | 0.0 | 0.9 | 0.00 | 0.16 | 0.00 | 92 | 1012.6 |
| 20260507085503 | 35 | 210 | 0.9 | 1.7 | 0.00 | 0.17 | 0.00 | 92 | 1012.6 |
| 20260507085003 | 35 | 210 | 0.9 | 1.7 | 0.00 | 0.17 | 0.00 | 91 | 1012.5 |
| 20260507084504 | 35 | 210 | 0.9 | 1.7 | 0.00 | 0.18 | 0.00 | 92 | 1012.6 |
| 20260507084003 | 35 | 210 | 0.9 | 2.6 | 0.00 | 0.18 | 0.00 | 91 | 1012.6 |
| 20260507083503 | 35 | 210 | 0.9 | 2.6 | 0.00 | 0.19 | 0.00 | 91 | 1012.7 |
| 20260507082005 | 36 | 210 | 0.9 | 1.7 | 0.00 | 0.22 | 0.00 | 92 | 1012.7 |
| 20260507081503 | 36 | 210 | 0.9 | 1.7 | 0.00 | 0.23 | 0.00 | 92 | 1012.7 |
| 20260507080504 | 35 | 210 | 0.9 | 2.6 | 0.00 | 0.24 | 0.00 | 91 | 1012.7 |
| 20260507080003 | 35 | 210 | 1.7 | 1.7 | 0.00 | 0.26 | 0.00 | 91 | 1012.8 |
| 20260507075503 | 35 | 210 | 0.9 | 1.7 | 0.00 | 0.28 | 0.00 | 91 | 1012.8 |
| 20260507075003 | 35 | 210 | 0.9 | 1.7 | 0.00 | 0.28 | 0.00 | 91 | 1012.8 |
| 20260507074503 | 35 | 210 | 1.7 | 2.6 | 0.00 | 0.29 | 0.00 | 91 | 1012.7 |
| 20260507074003 | 35 | 210 | 0.9 | 1.7 | 0.00 | 0.29 | 0.00 | 91 | 1012.7 |
| 20260507073504 | 36 | 210 | 0.9 | 2.6 | 0.00 | 0.30 | 0.00 | 91 | 1012.7 |
| 20260507073003 | 36 | 210 | 1.7 | 1.7 | 0.00 | 0.31 | 0.00 | 91 | 1012.7 |
| 20260507072503 | 36 | 210 | 0.9 | 2.6 | 0.00 | 0.32 | 0.00 | 90 | 1012.8 |
| 20260507072003 | 36 | 210 | 1.7 | 2.6 | 0.00 | 0.34 | 0.00 | 90 | 1012.7 |
| 20260507070503 | 37 | 213 | 0.9 | 2.6 | 0.00 | 0.36 | 0.00 | 90 | 1012.8 |
| 20260507070007 | 37 | 213 | 1.7 | 2.6 | 0.00 | 0.36 | 0.00 | 90 | 1012.8 |
| 20260507065503 | 37 | 213 | 1.7 | 2.6 | 0.00 | 0.37 | 0.00 | 90 | 1012.9 |
| 20260507065004 | 37 | 213 | 1.7 | 2.6 | 0.00 | 0.37 | 0.00 | 89 | 1013.0 |
| 20260507064505 | 37 | 213 | 1.7 | 2.6 | 0.00 | 0.38 | 0.00 | 89 | 1013.1 |
| 20260507064003 | 38 | 213 | 0.9 | 2.6 | 0.00 | 0.38 | 0.00 | 89 | 1013.2 |
| 20260507063504 | 38 | 213 | 0.9 | 2.6 | 0.00 | 0.39 | 0.00 | 89 | 1013.2 |
| 20260507063003 | 38 | 212 | 1.7 | 2.6 | 0.00 | 0.39 | 0.00 | 89 | 1013.2 |
| 20260507062503 | 38 | 213 | 0.9 | 1.7 | 0.00 | 0.39 | 0.00 | 88 | 1013.2 |
| 20260507062003 | 38 | 213 | 0.9 | 1.7 | 0.00 | 0.40 | 0.00 | 88 | 1013.2 |
| 20260507061503 | 39 | 213 | 0.9 | 1.7 | 0.00 | 0.40 | 0.00 | 88 | 1013.3 |
| 20260507061003 | 39 | 213 | 0.0 | 1.7 | 0.00 | 0.41 | 0.00 | 88 | 1013.3 |
| 20260507060503 | 39 | 213 | 0.0 | 0.0 | 0.00 | 0.42 | 0.00 | 88 | 1013.4 |
| 20260507060004 | 39 | 213 | 0.0 | 0.0 | 0.00 | 0.42 | 0.00 | 88 | 1013.3 |
| 20260507055503 | 39 | 213 | 0.0 | 0.0 | 0.00 | 0.43 | 0.00 | 88 | 1013.3 |
| 20260507054505 | 39 | 210 | 0.9 | 2.6 | 0.00 | 0.44 | 0.00 | 88 | 1013.2 |
| 20260507054004 | 40 | 195 | 0.9 | 1.7 | 0.00 | 0.44 | 0.00 | 88 | 1013.4 |
| 20260507053503 | 40 | 195 | 0.9 | 1.7 | 0.00 | 0.45 | 0.00 | 88 | 1013.2 |
| 20260507053004 | 40 | 195 | 0.9 | 1.7 | 0.00 | 0.45 | 0.00 | 87 | 1013.3 |
| 20260507052504 | 40 | 195 | 0.9 | 1.7 | 0.00 | 0.45 | 0.00 | 88 | 1013.4 |
| 20260507052004 | 40 | 195 | 1.7 | 1.7 | 0.00 | 0.46 | 0.00 | 88 | 1013.4 |
| 20260507051503 | 40 | 194 | 0.0 | 0.0 | 0.00 | 0.46 | 0.00 | 88 | 1013.4 |
| 20260507051003 | 40 | 194 | 0.0 | 0.0 | 0.00 | 0.46 | 0.00 | 88 | 1013.5 |
| 20260507050503 | 40 | 194 | 0.0 | 0.0 | 0.00 | 0.47 | 0.00 | 88 | 1013.6 |
| 20260507050004 | 40 | 194 | 0.0 | 0.0 | 0.00 | 0.49 | 0.00 | 87 | 1013.6 |
| 20260507045003 | 40 | 194 | 0.0 | 0.9 | 0.00 | 0.52 | 0.00 | 86 | 1013.8 |
| 20260507044505 | 40 | 194 | 0.0 | 0.9 | 0.00 | 0.53 | 0.00 | 86 | 1013.8 |
| 20260507044004 | 40 | 194 | 0.0 | 0.0 | 0.00 | 0.54 | 0.00 | 85 | 1013.8 |
| 20260507043505 | 40 | 194 | 0.0 | 0.0 | 0.00 | 0.55 | 0.00 | 85 | 1014.0 |
| 20260507042503 | 41 | 195 | 0.0 | 0.0 | 0.00 | 0.58 | 0.00 | 84 | 1013.9 |
| 20260507042004 | 41 | 195 | 0.9 | 1.7 | 0.00 | 0.59 | 0.00 | 84 | 1014.0 |
| 20260507041504 | 41 | 195 | 0.9 | 1.7 | 0.00 | 0.60 | 0.00 | 84 | 1014.0 |
| 20260507041004 | 41 | 196 | 0.0 | 0.9 | 0.00 | 0.62 | 0.00 | 83 | 1013.9 |
| 20260507040503 | 41 | 196 | 0.9 | 2.6 | 0.00 | 0.64 | 0.00 | 83 | 1013.8 |
| 20260507040003 | 41 | 253 | 0.0 | 2.6 | 0.00 | 0.66 | 0.00 | 82 | 1013.7 |
| 20260507035503 | 41 | 254 | 0.0 | 1.7 | 0.00 | 0.67 | 0.66 | 82 | 1013.7 |
| 20260507035004 | 41 | 257 | 0.9 | 2.6 | 0.00 | 0.68 | 0.66 | 82 | 1013.7 |
| 20260507034505 | 41 | 222 | 0.0 | 1.7 | 0.00 | 0.70 | 0.66 | 81 | 1013.8 |
| 20260507034004 | 41 | 208 | 0.9 | 2.6 | 0.00 | 0.70 | 0.66 | 81 | 1013.6 |
| 20260507033503 | 41 | 267 | 1.7 | 2.6 | 0.00 | 0.71 | 0.66 | 81 | 1013.6 |
| 20260507032504 | 41 | 271 | 0.9 | 2.6 | 0.00 | 0.72 | 0.66 | 80 | 1013.5 |
| 20260507032003 | 41 | 230 | 0.9 | 2.6 | 0.00 | 0.72 | 0.66 | 80 | 1013.6 |
| 20260507031504 | 41 | 212 | 1.7 | 2.6 | 0.00 | 0.73 | 0.66 | 80 | 1013.5 |
| 20260507031003 | 42 | 266 | 0.9 | 1.7 | 0.00 | 0.73 | 0.66 | 80 | 1013.5 |
| 20260507030504 | 42 | 263 | 1.7 | 2.6 | 0.00 | 0.74 | 0.66 | 79 | 1013.5 |
| 20260507030005 | 42 | 216 | 0.9 | 2.6 | 0.00 | 0.75 | 0.66 | 79 | 1013.4 |
| 20260507025503 | 42 | 195 | 1.7 | 2.6 | 0.00 | 0.75 | 0.66 | 79 | 1013.4 |
| 20260507025003 | 42 | 222 | 0.9 | 2.6 | 0.00 | 0.76 | 0.66 | 79 | 1013.3 |
| 20260507024503 | 42 | 249 | 0.0 | 2.6 | 0.00 | 0.77 | 0.66 | 79 | 1013.3 |
| 20260507024004 | 42 | 304 | 0.9 | 2.6 | 0.00 | 0.77 | 0.66 | 78 | 1013.3 |
| 20260507023503 | 42 | 204 | 0.9 | 2.6 | 0.00 | 0.78 | 0.66 | 78 | 1013.4 |
| 20260507023004 | 42 | 187 | 0.9 | 4.3 | 0.00 | 0.79 | 0.66 | 78 | 1013.4 |
| 20260507022504 | 42 | 227 | 0.9 | 4.3 | 0.00 | 0.79 | 0.66 | 77 | 1013.3 |
| 20260507022003 | 42 | 266 | 0.0 | 2.6 | 0.00 | 0.80 | 0.66 | 77 | 1013.3 |
| 20260507020503 | 42 | 257 | 1.7 | 2.6 | 0.00 | 0.84 | 0.66 | 76 | 1013.2 |
| 20260507020003 | 42 | 263 | 2.6 | 5.2 | 0.00 | 0.85 | 0.66 | 75 | 1013.2 |
| 20260507015505 | 43 | 226 | 1.7 | 2.6 | 0.00 | 0.88 | 0.66 | 75 | 1013.2 |
| 20260507015004 | 43 | 228 | 0.0 | 1.7 | 0.00 | 0.95 | 0.66 | 75 | 1013.3 |
| 20260507014504 | 43 | 232 | 0.9 | 5.2 | 0.00 | 1.02 | 0.66 | 74 | 1013.3 |
| 20260507014004 | 43 | 227 | 1.7 | 4.3 | 0.00 | 1.05 | 0.66 | 74 | 1013.3 |
| 20260507013503 | 43 | 242 | 0.9 | 5.2 | 0.00 | 1.08 | 0.66 | 74 | 1013.4 |
| 20260507013004 | 43 | 150 | 1.7 | 4.3 | 0.00 | 1.13 | 0.66 | 73 | 1013.3 |
| 20260507012503 | 43 | 258 | 0.9 | 2.6 | 0.00 | 1.15 | 0.66 | 73 | 1013.3 |
| 20260507012005 | 43 | 226 | 0.9 | 2.6 | 0.00 | 1.16 | 0.66 | 73 | 1013.3 |
| 20260507011004 | 44 | 274 | 1.7 | 4.3 | 0.00 | 1.17 | 0.66 | 71 | 1013.4 |
| 20260507010503 | 44 | 237 | 1.7 | 4.3 | 0.00 | 1.18 | 0.66 | 71 | 1013.4 |
| 20260507010003 | 44 | 194 | 1.7 | 4.3 | 0.00 | 1.18 | 0.66 | 70 | 1013.4 |
| 20260507005503 | 44 | 214 | 1.7 | 4.3 | 0.00 | 1.18 | 0.66 | 70 | 1013.5 |
| 20260507005004 | 44 | 270 | 1.7 | 6.1 | 0.00 | 1.18 | 0.66 | 69 | 1013.4 |
| 20260507004503 | 44 | 252 | 2.6 | 7.8 | 0.00 | 1.19 | 0.66 | 69 | 1013.4 |
| 20260507003503 | 45 | 265 | 2.6 | 6.1 | 0.00 | 1.20 | 0.66 | 68 | 1013.3 |
| 20260507002503 | 45 | 262 | 1.7 | 5.2 | 0.00 | 1.21 | 0.66 | 71 | 1013.1 |
| 20260507002003 | 45 | 289 | 1.7 | 4.3 | 0.00 | 1.22 | 0.66 | 70 | 1013.1 |
| 20260507001503 | 45 | 270 | 1.7 | 5.2 | 0.00 | 1.22 | 0.66 | 69 | 1013.1 |
| 20260507001004 | 45 | 278 | 2.6 | 7.0 | 0.00 | 1.24 | 0.66 | 68 | 1013.2 |
| 20260507000504 | 45 | 275 | 1.7 | 4.3 | 0.00 | 1.26 | 0.66 | 68 | 1012.9 |
| 20260507000004 | 46 | 286 | 2.6 | 5.2 | 0.00 | 1.27 | 0.66 | 68 | 1013.0 |
| 20260506235504 | 46 | 296 | 1.7 | 2.6 | 0.00 | 1.27 | 0.66 | 68 | 1012.9 |
| 20260506235003 | 46 | 264 | 0.9 | 2.6 | 0.00 | 1.28 | 0.66 | 69 | 1012.6 |
| 20260506234504 | 46 | 280 | 0.9 | 5.2 | 0.00 | 1.29 | 0.66 | 70 | 1012.7 |
| 20260506233504 | 46 | 291 | 0.9 | 2.6 | 0.00 | 1.32 | 0.66 | 69 | 1012.5 |
| 20260506233003 | 46 | 279 | 2.6 | 5.2 | 0.00 | 1.32 | 0.66 | 67 | 1012.4 |
| 20260506231004 | 47 | 290 | 2.6 | 7.8 | 0.00 | 1.33 | 0.66 | 71 | 1012.6 |
| 20260506230503 | 47 | 314 | 1.7 | 6.1 | 0.00 | 1.33 | 0.66 | 72 | 1012.5 |
| 20260506230004 | 47 | 273 | 3.5 | 5.2 | 0.00 | 1.33 | 0.66 | 72 | 1012.4 |
| 20260506225004 | 47 | 309 | 1.7 | 5.2 | 0.00 | 1.38 | 0.66 | 72 | 1012.1 |
| 20260506224503 | 47 | 304 | 2.6 | 6.1 | 0.00 | 1.39 | 0.66 | 72 | 1012.0 |
| 20260506224003 | 47 | 265 | 4.3 | 7.0 | 0.00 | 1.40 | 0.66 | 72 | 1012.1 |
| 20260506223503 | 47 | 270 | 2.6 | 6.1 | 0.00 | 1.42 | 0.66 | 73 | 1012.2 |
| 20260506223003 | 47 | 282 | 2.6 | 6.1 | 0.00 | 1.43 | 0.66 | 73 | 1012.2 |
| 20260506222503 | 47 | 276 | 4.3 | 7.8 | 0.00 | 1.44 | 0.66 | 72 | 1012.0 |
| 20260506222005 | 48 | 249 | 3.5 | 7.0 | 0.00 | 1.44 | 0.66 | 72 | 1011.9 |
| 20260506221505 | 48 | 264 | 2.6 | 7.0 | 0.00 | 1.44 | 0.66 | 72 | 1011.9 |
| 20260506220503 | 48 | 304 | 2.6 | 5.2 | 0.00 | 1.44 | 0.66 | 72 | 1011.8 |
| 20260506220004 | 48 | 265 | 1.7 | 5.2 | 0.00 | 1.44 | 0.66 | 72 | 1011.7 |
| 20260506215504 | 48 | 268 | 4.3 | 7.0 | 0.00 | 1.44 | 0.66 | 73 | 1011.6 |
| 20260506215004 | 48 | 300 | 1.7 | 7.0 | 0.00 | 1.44 | 0.66 | 73 | 1011.5 |
| 20260506214504 | 48 | 265 | 1.7 | 6.1 | 0.00 | 1.44 | 0.66 | 73 | 1011.4 |
| 20260506214004 | 48 | 271 | 2.6 | 7.0 | 0.00 | 1.44 | 0.66 | 73 | 1011.3 |